createdAt,value
2019-05-29T00:00:09.895Z,101737.00
2019-05-29T00:03:18.727Z,101747.96
2019-05-29T00:06:27.399Z,101749.31
2019-05-29T00:09:46.305Z,101747.11
2019-05-29T00:12:55.027Z,101751.97
2019-05-29T00:16:03.828Z,101752.17
2019-05-29T00:19:12.711Z,101761.96
2019-05-29T00:22:21.693Z,101771.22
2019-05-29T00:25:41.832Z,101765.81
2019-05-29T00:28:50.354Z,101765.13
2019-05-29T00:31:58.882Z,101776.13
2019-05-29T00:35:17.981Z,101776.21
2019-05-29T00:38:36.918Z,101768.48
2019-05-29T00:41:45.549Z,101774.06
2019-05-29T00:44:54.152Z,101777.08
2019-05-29T00:48:02.833Z,101784.81
2019-05-29T00:51:11.595Z,101792.06
2019-05-29T00:54:20.198Z,101791.83
2019-05-29T00:57:28.873Z,101806.52
2019-05-29T01:00:37.683Z,101807.04
2019-05-29T01:03:46.200Z,101809.61
2019-05-29T01:07:05.022Z,101813.31
2019-05-29T01:10:14.686Z,101812.31
2019-05-29T01:13:23.732Z,101816.55
2019-05-29T01:16:32.337Z,101817.33
2019-05-29T01:19:39.658Z,101821.06
2019-05-29T01:22:48.206Z,101814.33
2019-05-29T01:25:56.812Z,101816.02
2019-05-29T01:29:15.619Z,101815.55
2019-05-29T01:32:24.272Z,101819.44
2019-05-29T01:35:32.896Z,101817.53
2019-05-29T01:38:41.550Z,101814.70
2019-05-29T01:41:50.235Z,101820.98
2019-05-29T01:45:07.864Z,101829.39
2019-05-29T01:48:09.248Z,101830.89
2019-05-29T01:51:17.750Z,101844.84
2019-05-29T01:54:26.402Z,101851.44
2019-05-29T01:57:46.305Z,101842.07
2019-05-29T02:00:54.919Z,101840.26
2019-05-29T02:04:03.566Z,101847.48
2019-05-29T02:07:11.341Z,101848.28
2019-05-29T02:10:20.300Z,101855.11
2019-05-29T02:13:29.223Z,101858.92
2019-05-29T02:16:37.802Z,101860.86
2019-05-29T02:19:46.554Z,101857.36
2019-05-29T02:22:55.455Z,101861.14
2019-05-29T02:26:04.180Z,101868.84
2019-05-29T02:29:12.832Z,101860.66
2019-05-29T02:32:21.422Z,101873.04
2019-05-29T02:35:30.023Z,101873.78
2019-05-29T02:38:38.853Z,101884.87
2019-05-29T02:41:47.557Z,101887.02
2019-05-29T02:44:56.163Z,101887.56
2019-05-29T02:48:15.028Z,101896.47
2019-05-29T02:51:24.277Z,101896.97
2019-05-29T02:54:33.012Z,101900.97
2019-05-29T02:57:52.028Z,101895.11
2019-05-29T03:01:00.911Z,101900.27
2019-05-29T03:04:09.520Z,101902.80
2019-05-29T03:07:18.217Z,101903.70
2019-05-29T03:10:26.912Z,101916.23
2019-05-29T03:13:35.581Z,101915.43
2019-05-29T03:16:44.244Z,101926.88
2019-05-29T03:19:52.953Z,101922.63
2019-05-29T03:23:01.570Z,101928.72
2019-05-29T03:26:10.183Z,101931.42
2019-05-29T03:29:18.859Z,101933.78
2019-05-29T03:32:30.469Z,101940.22
2019-05-29T03:35:48.794Z,101947.35
2019-05-29T03:38:57.914Z,101948.86
2019-05-29T03:42:06.544Z,101960.34
2019-05-29T03:45:16.649Z,101959.16
2019-05-29T03:48:25.945Z,101957.76
2019-05-29T03:51:37.210Z,101962.55
2019-05-29T03:54:46.592Z,101961.05
2019-05-29T03:57:55.343Z,101963.75
2019-05-29T04:01:04.146Z,101968.87
2019-05-29T04:04:12.758Z,101972.46
2019-05-29T04:07:21.490Z,101968.87
2019-05-29T04:10:32.849Z,101976.70
2019-05-29T04:13:41.486Z,101978.05
2019-05-29T04:16:59.335Z,101987.20
2019-05-29T04:20:02.374Z,101986.73
2019-05-29T04:23:10.934Z,101994.18
2019-05-29T04:26:21.190Z,101996.77
2019-05-29T04:29:30.124Z,102007.72
2019-05-29T04:32:38.858Z,102006.68
2019-05-29T04:35:47.636Z,102009.42
2019-05-29T04:38:56.444Z,102018.52
2019-05-29T04:42:05.199Z,102022.96
2019-05-29T04:45:14.121Z,102031.80
2019-05-29T04:48:24.246Z,102031.30
2019-05-29T04:51:33.120Z,102035.57
2019-05-29T04:54:41.918Z,102043.20
2019-05-29T04:57:51.097Z,102042.25
2019-05-29T05:00:59.894Z,102048.16
2019-05-29T05:04:08.524Z,102049.67
2019-05-29T05:07:17.169Z,102062.40
2019-05-29T05:10:41.428Z,102066.96
2019-05-29T05:13:50.349Z,102072.23
2019-05-29T05:17:00.518Z,102082.25
2019-05-29T05:20:19.318Z,102080.77
2019-05-29T05:23:28.002Z,102086.66
2019-05-29T05:26:36.819Z,102091.73
2019-05-29T05:29:45.572Z,102093.67
2019-05-29T05:32:54.233Z,102103.72
2019-05-29T05:36:01.417Z,102105.61
2019-05-29T05:39:10.285Z,102103.42
2019-05-29T05:42:19.992Z,102104.55
2019-05-29T05:45:28.592Z,102115.15
2019-05-29T05:48:47.463Z,102121.14
2019-05-29T05:51:56.089Z,102129.74
2019-05-29T05:55:04.872Z,102119.76
2019-05-29T05:58:13.546Z,102133.23
2019-05-29T06:01:22.168Z,102135.11
2019-05-29T06:04:31.810Z,102148.27
2019-05-29T06:07:50.755Z,102147.17
2019-05-29T06:11:01.053Z,102146.13
2019-05-29T06:14:09.768Z,102145.20
2019-05-29T06:17:21.792Z,102150.09
2019-05-29T06:20:28.866Z,102152.00
2019-05-29T06:23:38.952Z,102150.43
2019-05-29T06:26:47.606Z,102163.80
2019-05-29T06:29:56.243Z,102166.34
2019-05-29T06:33:05.049Z,102166.30
2019-05-29T06:36:13.634Z,102171.48
2019-05-29T06:39:22.563Z,102168.87
2019-05-29T06:42:31.207Z,102160.75
2019-05-29T06:45:40.104Z,102168.80
2019-05-29T06:49:01.053Z,102170.14
2019-05-29T06:52:19.816Z,102174.61
2019-05-29T06:55:28.541Z,102189.41
2019-05-29T06:58:38.091Z,102194.92
2019-05-29T07:01:47.673Z,102192.37
2019-05-29T07:04:56.405Z,102196.67
2019-05-29T07:08:18.317Z,102185.64
2019-05-29T07:11:14.142Z,102198.84
2019-05-29T07:14:23.157Z,102204.97
2019-05-29T07:17:32.992Z,102212.25
2019-05-29T07:20:42.704Z,102212.59
2019-05-29T07:23:51.708Z,102210.72
2019-05-29T07:27:00.281Z,102216.98
2019-05-29T07:30:09.935Z,102211.02
2019-05-29T07:33:19.052Z,102215.75
2019-05-29T07:36:28.829Z,102204.78
2019-05-29T07:39:37.459Z,102226.67
2019-05-29T07:42:53.673Z,102226.61
2019-05-29T07:45:56.413Z,102236.30
2019-05-29T07:49:05.048Z,102237.92
2019-05-29T07:52:23.928Z,102239.19
2019-05-29T07:55:43.164Z,102247.54
2019-05-29T07:59:01.540Z,102247.22
2019-05-29T08:02:02.284Z,102254.36
2019-05-29T08:05:13.184Z,102252.34
2019-05-29T08:08:32.140Z,102250.30
2019-05-29T08:11:41.513Z,102248.38
2019-05-29T08:14:51.882Z,102253.56
2019-05-29T08:18:00.656Z,102256.84
2019-05-29T08:21:19.415Z,102258.83
2019-05-29T08:24:28.079Z,102265.56
2019-05-29T08:27:36.727Z,102269.98
2019-05-29T08:30:51.364Z,102274.64
2019-05-29T08:33:56.269Z,102277.30
2019-05-29T08:37:07.301Z,102272.89
2019-05-29T08:40:14.571Z,102280.32
2019-05-29T08:43:23.170Z,102283.45
2019-05-29T08:47:00.727Z,102283.31
2019-05-29T08:49:54.421Z,102283.39
2019-05-29T08:53:13.148Z,102280.45
2019-05-29T08:56:21.703Z,102290.98
2019-05-29T08:59:30.340Z,102284.34
2019-05-29T09:02:38.867Z,102284.41
2019-05-29T09:06:04.298Z,102281.53
2019-05-29T09:08:57.795Z,102292.88
2019-05-29T09:12:16.583Z,102294.43
2019-05-29T09:15:25.296Z,102303.23
2019-05-29T09:18:34.024Z,102299.20
2019-05-29T09:21:42.625Z,102306.91
2019-05-29T09:24:51.528Z,102311.33
2019-05-29T09:28:00.165Z,102315.36
2019-05-29T09:31:08.844Z,102306.28
2019-05-29T09:34:18.761Z,102313.51
2019-05-29T09:37:28.259Z,102308.49
2019-05-29T09:40:37.084Z,102312.83
2019-05-29T09:43:58.152Z,102302.38
2019-05-29T09:46:56.056Z,102305.31
2019-05-29T09:50:07.748Z,102298.37
2019-05-29T09:53:16.390Z,102300.13
2019-05-29T09:56:25.049Z,102305.80
2019-05-29T09:59:43.820Z,102282.32
2019-05-29T10:02:52.796Z,102297.81
2019-05-29T10:06:04.069Z,102305.58
2019-05-29T10:09:16.182Z,102307.16
2019-05-29T10:12:24.402Z,102324.54
2019-05-29T10:15:33.027Z,102319.24
2019-05-29T10:18:52.260Z,102313.32
2019-05-29T10:22:12.776Z,102318.33
2019-05-29T10:25:31.802Z,102315.94
2019-05-29T10:28:55.347Z,102329.56
2019-05-29T10:32:01.353Z,102324.19
2019-05-29T10:35:10.293Z,102328.48
2019-05-29T10:38:18.925Z,102327.02
2019-05-29T10:41:28.647Z,102327.50
2019-05-29T10:44:37.431Z,102331.28
2019-05-29T10:47:47.310Z,102329.94
2019-05-29T10:51:06.224Z,102330.84
2019-05-29T10:54:15.455Z,102341.95
2019-05-29T10:57:34.347Z,102336.39
2019-05-29T11:00:42.989Z,102337.22
2019-05-29T11:03:52.316Z,102338.31
2019-05-29T11:07:01.936Z,102338.62
2019-05-29T11:10:13.627Z,102336.52
2019-05-29T11:13:22.306Z,102343.41
2019-05-29T11:16:32.262Z,102336.13
2019-05-29T11:19:51.282Z,102338.48
2019-05-29T11:22:59.924Z,102335.05
2019-05-29T11:26:08.625Z,102336.93
2019-05-29T11:29:17.280Z,102337.89
2019-05-29T11:32:26.002Z,102340.95
2019-05-29T11:35:34.765Z,102344.74
2019-05-29T11:38:43.805Z,102351.00
2019-05-29T11:41:52.712Z,102344.03
2019-05-29T11:45:03.753Z,102331.47
2019-05-29T11:48:22.877Z,102339.89
2019-05-29T11:51:44.222Z,102327.66
2019-05-29T11:54:55.939Z,102339.56
2019-05-29T11:58:02.427Z,102335.33
2019-05-29T12:01:11.718Z,102335.44
2019-05-29T12:04:26.387Z,102340.16
2019-05-29T12:07:30.591Z,102331.91
2019-05-29T12:10:39.185Z,102341.89
2019-05-29T12:13:47.847Z,102354.44
2019-05-29T12:16:58.067Z,102349.26
2019-05-29T12:20:26.475Z,102348.73
2019-05-29T12:23:26.137Z,102345.88
2019-05-29T12:26:29.457Z,102349.58
2019-05-29T12:29:38.147Z,102340.34
2019-05-29T12:32:45.276Z,102342.16
2019-05-29T12:35:54.866Z,102346.58
2019-05-29T12:39:04.248Z,102338.80
2019-05-29T12:42:13.317Z,102340.12
2019-05-29T12:45:21.992Z,102344.37
2019-05-29T12:48:30.646Z,102346.52
2019-05-29T12:51:37.669Z,102347.28
2019-05-29T12:54:46.325Z,102342.14
2019-05-29T12:58:05.586Z,102342.48
2019-05-29T13:01:13.213Z,102336.06
2019-05-29T13:04:21.855Z,102338.02
2019-05-29T13:07:30.592Z,102334.16
2019-05-29T13:10:38.225Z,102336.29
2019-05-29T13:13:46.848Z,102331.09
2019-05-29T13:16:56.653Z,102331.94
2019-05-29T13:20:31.223Z,102322.00
2019-05-29T13:34:38.999Z,102336.72
2019-05-29T13:37:50.696Z,102330.84
2019-05-29T13:41:00.408Z,102335.98
2019-05-29T13:44:09.351Z,102332.45
2019-05-29T13:47:21.492Z,102331.93
2019-05-29T13:50:30.129Z,102338.25
2019-05-29T13:53:38.907Z,102336.84
2019-05-29T13:56:47.832Z,102336.67
2019-05-29T13:59:57.904Z,102332.30
2019-05-29T14:03:07.639Z,102336.16
2019-05-29T14:06:17.218Z,102328.11
2019-05-29T14:09:25.933Z,102325.60
2019-05-29T14:12:44.673Z,102333.98
2019-05-29T14:15:53.229Z,102330.91
2019-05-29T14:19:02.766Z,102334.98
2019-05-29T14:22:11.537Z,102336.56
2019-05-29T14:25:36.476Z,102342.28
2019-05-29T14:28:45.115Z,102334.95
2019-05-29T14:31:53.717Z,102333.16
2019-05-29T14:35:04.258Z,102332.53
2019-05-29T14:38:15.083Z,102332.33
2019-05-29T14:41:23.052Z,102336.02
2019-05-29T14:44:31.774Z,102334.70
2019-05-29T14:47:40.546Z,102334.27
2019-05-29T14:50:49.211Z,102344.37
2019-05-29T14:53:58.007Z,102340.34
2019-05-29T14:57:19.486Z,102343.75
2019-05-29T15:00:25.176Z,102343.20
2019-05-29T15:03:40.445Z,102332.85
2019-05-29T15:06:49.012Z,102333.75
2019-05-29T15:09:57.621Z,102346.93
2019-05-29T15:13:06.734Z,102351.55
2019-05-29T15:16:15.789Z,102347.10
2019-05-29T15:19:24.381Z,102346.30
2019-05-29T15:22:32.960Z,102345.66
2019-05-29T15:25:41.571Z,102337.56
2019-05-29T15:28:50.121Z,102333.48
2019-05-29T15:31:58.789Z,102329.34
2019-05-29T15:35:12.686Z,102341.09
2019-05-29T15:38:18.483Z,102340.86
2019-05-29T15:41:27.106Z,102340.89
2019-05-29T15:44:35.887Z,102345.93
2019-05-29T15:47:43.627Z,102338.32
2019-05-29T15:50:52.760Z,102346.78
2019-05-29T15:54:35.292Z,102345.89
2019-05-29T15:57:44.076Z,102356.51
2019-05-29T16:00:51.380Z,102355.17
2019-05-29T16:04:00.195Z,102341.61
2019-05-29T16:07:09.862Z,102347.03
2019-05-29T16:10:20.881Z,102342.50
2019-05-29T16:13:29.484Z,102341.50
2019-05-29T16:16:38.036Z,102346.42
2019-05-29T16:19:46.813Z,102346.70
2019-05-29T16:22:57.223Z,102351.48
2019-05-29T16:26:05.975Z,102339.25
2019-05-29T16:29:16.387Z,102336.09
2019-05-29T16:32:26.825Z,102339.95
2019-05-29T16:35:37.415Z,102335.95
2019-05-29T16:38:45.903Z,102332.02
2019-05-29T16:41:54.461Z,102331.87
2019-05-29T16:45:03.127Z,102338.67
2019-05-29T16:48:25.963Z,102329.40
2019-05-29T16:51:34.624Z,102335.70
2019-05-29T16:54:43.371Z,102337.92
2019-05-29T16:57:52.378Z,102335.19
2019-05-29T17:01:00.946Z,102338.19
2019-05-29T17:04:09.882Z,102334.59
2019-05-29T17:07:18.560Z,102333.70
2019-05-29T17:10:37.216Z,102343.45
2019-05-29T17:13:45.785Z,102330.67
2019-05-29T17:16:54.461Z,102333.88
2019-05-29T17:20:03.401Z,102335.63
2019-05-29T17:23:12.147Z,102334.08
2019-05-29T17:26:20.841Z,102331.03
2019-05-29T17:29:29.542Z,102327.92
2019-05-29T17:32:38.181Z,102337.16
2019-05-29T17:35:46.838Z,102334.81
2019-05-29T17:38:55.661Z,102333.20
2019-05-29T17:42:04.371Z,102334.81
2019-05-29T17:45:14.118Z,102333.25
2019-05-29T17:48:23.864Z,102335.80
2019-05-29T17:51:32.606Z,102335.94
2019-05-29T17:54:40.885Z,102335.28
2019-05-29T17:58:03.624Z,102336.70
2019-05-29T18:01:12.397Z,102336.06
2019-05-29T18:04:22.469Z,102336.62
2019-05-29T18:07:31.279Z,102336.49
2019-05-29T18:10:39.818Z,102325.14
2019-05-29T18:13:48.340Z,102322.61
2019-05-29T18:16:56.866Z,102326.38
2019-05-29T18:20:17.732Z,102326.10
2019-05-29T18:23:36.640Z,102326.10
2019-05-29T18:26:47.186Z,102330.93
2019-05-29T18:29:55.468Z,102336.06
2019-05-29T18:33:04.246Z,102329.09
2019-05-29T18:36:12.864Z,102328.72
2019-05-29T18:39:22.169Z,102328.00
2019-05-29T18:42:30.977Z,102327.78
2019-05-29T18:45:39.860Z,102331.44
2019-05-29T18:48:49.027Z,102331.87
2019-05-29T18:52:15.614Z,102338.62
2019-05-29T18:55:25.334Z,102348.61
2019-05-29T18:58:35.875Z,102338.14
2019-05-29T19:01:45.987Z,102339.70
2019-05-29T19:04:55.670Z,102345.04
2019-05-29T19:08:05.653Z,102345.44
2019-05-29T19:11:14.850Z,102344.19
2019-05-29T19:14:25.821Z,102340.65
2019-05-29T19:17:35.981Z,102342.97
2019-05-29T19:20:56.653Z,102346.05
2019-05-29T19:24:05.182Z,102337.86
2019-05-29T19:27:12.749Z,102353.09
2019-05-29T19:30:33.026Z,102357.02
2019-05-29T19:33:41.981Z,102362.07
2019-05-29T19:36:50.819Z,102357.02
2019-05-29T19:39:59.926Z,102367.32
2019-05-29T19:43:08.973Z,102366.63
2019-05-29T19:46:28.583Z,102361.13
2019-05-29T19:49:47.646Z,102364.95
2019-05-29T19:53:07.182Z,102369.91
2019-05-29T19:56:27.525Z,102376.24
2019-05-29T19:59:36.388Z,102380.18
2019-05-29T20:02:45.302Z,102379.56
2019-05-29T20:05:55.056Z,102372.47
2019-05-29T20:09:04.275Z,102378.12
2019-05-29T20:12:12.148Z,102376.14
2019-05-29T20:15:31.975Z,102377.20
2019-05-29T20:18:41.225Z,102382.31
2019-05-29T20:21:49.389Z,102379.47
2019-05-29T20:25:09.008Z,102374.84
2019-05-29T20:28:17.768Z,102377.14
2019-05-29T20:31:26.288Z,102385.65
2019-05-29T20:34:47.007Z,102382.25
2019-05-29T20:38:06.729Z,102387.69
2019-05-29T20:41:15.699Z,102391.64
2019-05-29T20:44:24.837Z,102386.69
2019-05-29T20:47:33.662Z,102390.08
2019-05-29T20:50:43.327Z,102386.72
2019-05-29T20:54:03.056Z,102384.01
2019-05-29T20:57:12.339Z,102378.98
2019-05-29T21:00:21.253Z,102380.34
2019-05-29T21:03:30.617Z,102390.02
2019-05-29T21:07:06.317Z,102380.72
2019-05-29T21:10:15.700Z,102384.98
2019-05-29T21:13:24.921Z,102386.00
2019-05-29T21:16:34.059Z,102390.27
2019-05-29T21:19:44.623Z,102389.91
2019-05-29T21:22:53.420Z,102386.84
2019-05-29T21:26:01.966Z,102385.52
2019-05-29T21:29:10.540Z,102391.11
2019-05-29T21:32:48.962Z,102391.12
2019-05-29T21:35:57.508Z,102388.42
2019-05-29T21:39:09.477Z,102389.80
2019-05-29T21:42:18.012Z,102391.48
2019-05-29T21:45:26.500Z,102387.92
2019-05-29T21:48:35.036Z,102385.72
2019-05-29T21:51:53.839Z,102381.64
2019-05-29T21:55:02.380Z,102384.03
2019-05-29T21:58:11.069Z,102378.77
2019-05-29T22:01:18.307Z,102379.62
2019-05-29T22:04:26.925Z,102382.84
2019-05-29T22:07:35.718Z,102379.11
2019-05-29T22:10:44.912Z,102370.11
2019-05-29T22:13:54.404Z,102381.14
2019-05-29T22:17:13.144Z,102389.80
2019-05-29T22:20:21.719Z,102387.38
2019-05-29T22:23:30.228Z,102387.38
2019-05-29T22:26:38.750Z,102387.91
2019-05-29T22:29:47.394Z,102383.63
2019-05-29T22:33:06.220Z,102369.06
2019-05-29T22:36:14.827Z,102373.80
2019-05-29T22:39:23.508Z,102381.91
2019-05-29T22:42:32.013Z,102381.91
2019-05-29T22:45:40.640Z,102376.13
2019-05-29T22:48:47.840Z,102367.49
2019-05-29T22:51:56.441Z,102361.55
2019-05-29T22:55:06.593Z,102363.73
2019-05-29T22:58:27.516Z,102362.59
2019-05-29T23:01:36.146Z,102365.12
2019-05-29T23:04:44.684Z,102364.25
2019-05-29T23:07:54.128Z,102355.45
2019-05-29T23:11:13.168Z,102353.41
2019-05-29T23:14:22.399Z,102351.70
2019-05-29T23:17:31.102Z,102348.48
2019-05-29T23:20:49.993Z,102342.88
2019-05-29T23:24:09.260Z,102338.33
2019-05-29T23:27:17.934Z,102338.80
2019-05-29T23:30:29.767Z,102338.63
2019-05-29T23:33:37.034Z,102338.81
2019-05-29T23:36:45.664Z,102335.27
2019-05-29T23:39:55.050Z,102329.82
2019-05-29T23:43:03.732Z,102327.56
2019-05-29T23:46:23.049Z,102332.03
2019-05-29T23:49:33.114Z,102335.70
2019-05-29T23:52:41.779Z,102327.89
2019-05-29T23:55:50.444Z,102330.58
2019-05-29T23:58:59.926Z,102330.08
